Time;durP1;ratioP1;P1;durP2;ratioP2;P2;SDS_P1;SDS_P2;PMS_P1;PMS_P2;Temp;Humidity;BMP_temperature;BMP_pressure;BME280_temperature;BME280_humidity;BME280_pressure;Samples;Min_cycle;Max_cycle;Signal;HPM_P1;HPM_P2
2023/04/03 00:00:41;;;;;;;5.03;3.17;;;5.60;83.70;;;;;;5072013;28;20033;-76
2023/04/03 00:03:07;;;;;;;6.80;3.50;;;5.50;84.10;;;;;;5072046;28;20037;-75
2023/04/03 00:05:33;;;;;;;6.05;3.03;;;5.40;84.30;;;;;;5072855;28;20036;-75
2023/04/03 00:07:59;;;;;;;6.38;3.40;;;5.30;83.80;;;;;;5055189;28;20056;-75
2023/04/03 00:10:24;;;;;;;5.75;3.20;;;5.30;84.60;;;;;;5071815;28;20025;-75
2023/04/03 00:12:50;;;;;;;5.40;3.33;;;5.20;85.10;;;;;;5055227;28;20021;-74
2023/04/03 00:15:16;;;;;;;6.32;3.47;;;5.20;85.10;;;;;;5055254;28;20033;-75
2023/04/03 00:17:41;;;;;;;6.07;3.33;;;5.20;84.90;;;;;;5071738;28;20041;-75
2023/04/03 00:20:08;;;;;;;4.28;3.00;;;5.20;85.30;;;;;;5072777;28;20075;-75
2023/04/03 00:22:33;;;;;;;7.03;3.55;;;5.10;85.80;;;;;;5055224;28;20025;-75
2023/04/03 00:24:59;;;;;;;5.93;3.10;;;5.20;85.70;;;;;;5055019;28;20033;-75
2023/04/03 00:27:25;;;;;;;4.47;3.00;;;5.20;85.50;;;;;;5072587;28;20029;-75
2023/04/03 00:29:51;;;;;;;7.68;3.58;;;5.30;85.50;;;;;;5071740;28;20029;-75
2023/04/03 00:32:16;;;;;;;6.85;3.40;;;5.30;85.70;;;;;;5071725;28;20036;-75
2023/04/03 00:34:42;;;;;;;5.60;2.97;;;5.30;85.90;;;;;;5038562;28;20075;-75
2023/04/03 00:37:07;;;;;;;4.80;2.65;;;5.30;85.70;;;;;;5076215;28;20025;-75
2023/04/03 00:39:33;;;;;;;5.50;3.00;;;5.40;85.80;;;;;;5058834;28;20040;-75
2023/04/03 00:41:59;;;;;;;5.18;3.15;;;5.40;85.80;;;;;;5075506;28;20028;-75
2023/04/03 00:44:27;;;;;;;8.30;3.22;;;5.30;86.10;;;;;;5075289;28;20037;-75
2023/04/03 00:46:53;;;;;;;5.40;3.60;;;5.20;86.40;;;;;;5074856;28;20029;-75
2023/04/03 00:49:19;;;;;;;6.15;3.17;;;5.30;86.40;;;;;;5075380;28;20035;-74
2023/04/03 00:51:45;;;;;;;8.27;3.72;;;5.20;86.30;;;;;;5075176;28;20104;-75
2023/04/03 00:54:12;;;;;;;4.68;3.60;;;5.20;86.40;;;;;;5075020;28;20017;-75
2023/04/03 00:56:38;;;;;;;7.35;3.47;;;5.30;86.80;;;;;;5075133;28;20040;-75
2023/04/03 00:59:13;;;;;;;6.47;3.58;;;5.30;86.60;;;;;;5074990;28;20029;-75
2023/04/03 01:01:39;;;;;;;7.88;3.28;;;5.30;86.70;;;;;;5075959;28;20029;-75
2023/04/03 01:04:06;;;;;;;5.25;3.22;;;5.40;86.80;;;;;;5041717;28;20124;-74
2023/04/03 01:06:36;;;;;;;6.93;3.30;;;5.40;86.80;;;;;;5075760;28;20111;-75
2023/04/03 01:09:03;;;;;;;5.03;2.85;;;5.40;86.90;;;;;;5074795;28;20108;-75
2023/04/03 01:11:29;;;;;;;6.75;3.22;;;5.40;86.80;;;;;;5074738;28;20024;-75
2023/04/03 01:13:55;;;;;;;6.70;2.97;;;5.40;86.90;;;;;;5058109;28;20476;-75
2023/04/03 01:16:20;;;;;;;5.18;2.88;;;5.50;86.90;;;;;;5041490;28;20056;-75
2023/04/03 01:18:46;;;;;;;6.53;3.45;;;5.50;86.80;;;;;;5058112;28;20036;-75
2023/04/03 01:21:48;;;;;;;6.10;3.28;;;5.50;86.80;;;;;;5057998;28;20033;-75
2023/04/03 01:24:30;;;;;;;4.55;3.20;;;5.50;86.90;;;;;;5071823;28;20037;-75
2023/04/03 01:26:56;;;;;;;5.78;3.25;;;5.50;87.00;;;;;;5075316;28;20033;-75
2023/04/03 01:29:21;;;;;;;5.72;3.05;;;5.50;87.00;;;;;;5074352;28;20036;-75
2023/04/03 01:31:57;;;;;;;6.03;3.45;;;5.50;87.00;;;;;;5075336;28;20035;-75
2023/04/03 01:34:23;;;;;;;6.60;3.47;;;5.40;87.10;;;;;;5057662;28;20025;-75
2023/04/03 01:36:50;;;;;;;6.00;3.35;;;5.50;87.20;;;;;;5074298;28;20032;-74
2023/04/03 01:39:16;;;;;;;6.30;3.60;;;5.40;87.10;;;;;;5074298;28;20025;-75
2023/04/03 01:41:42;;;;;;;5.40;3.72;;;5.50;87.20;;;;;;5074443;28;20043;-74
2023/04/03 01:44:08;;;;;;;5.75;3.53;;;5.50;87.20;;;;;;5057440;28;20029;-75
2023/04/03 01:46:33;;;;;;;5.50;3.33;;;5.50;87.20;;;;;;5073826;28;20093;-75
2023/04/03 01:48:59;;;;;;;4.75;2.92;;;5.40;86.40;;;;;;5074557;28;20076;-75
2023/04/03 01:51:25;;;;;;;6.03;2.75;;;5.30;86.50;;;;;;5073951;28;20025;-75
2023/04/03 01:53:51;;;;;;;5.45;3.03;;;5.30;86.30;;;;;;5057313;28;20048;-75
2023/04/03 01:56:17;;;;;;;6.30;3.08;;;5.30;86.20;;;;;;5057361;28;20032;-75
2023/04/03 01:58:42;;;;;;;5.10;2.92;;;5.30;86.00;;;;;;5073830;28;20028;-74
2023/04/03 02:01:09;;;;;;;5.43;3.30;;;5.20;86.30;;;;;;5057166;28;20029;-75
2023/04/03 02:03:35;;;;;;;5.88;3.17;;;5.20;86.40;;;;;;5074802;28;20029;-75
2023/04/03 02:06:01;;;;;;;6.38;2.97;;;5.20;86.60;;;;;;5073676;28;20032;-75
2023/04/03 02:08:26;;;;;;;6.32;2.90;;;5.20;86.70;;;;;;5074628;28;20077;-75
2023/04/03 02:10:52;;;;;;;4.28;2.25;;;5.10;86.40;;;;;;5074629;28;20036;-74
2023/04/03 02:13:18;;;;;;;4.22;2.60;;;5.10;86.30;;;;;;5073723;28;20013;-74
2023/04/03 02:15:45;;;;;;;2.22;1.92;;;5.10;86.80;;;;;;5056836;28;20025;-75
2023/04/03 02:18:11;;;;;;;6.55;2.63;;;5.00;86.80;;;;;;5073633;28;20025;-75
2023/04/03 02:20:37;;;;;;;4.13;2.45;;;5.00;87.00;;;;;;5073539;28;20029;-75
2023/04/03 02:23:03;;;;;;;2.17;1.63;;;5.00;87.10;;;;;;5073355;28;20036;-75
2023/04/03 02:25:31;;;;;;;3.90;2.00;;;5.00;87.50;;;;;;5073433;28;20028;-74
2023/04/03 02:27:56;;;;;;;2.83;2.05;;;5.00;87.80;;;;;;5073141;28;20032;-75
2023/04/03 02:30:22;;;;;;;3.65;1.80;;;5.00;87.70;;;;;;5074213;28;20029;-75
2023/04/03 02:32:47;;;;;;;3.22;1.90;;;5.00;87.80;;;;;;5074199;28;20029;-75
2023/04/03 02:35:13;;;;;;;4.35;2.42;;;5.00;88.00;;;;;;5056475;28;20025;-75
2023/04/03 02:37:39;;;;;;;2.88;1.77;;;5.00;88.10;;;;;;5056625;28;20029;-75
2023/04/03 02:40:06;;;;;;;3.80;1.65;;;5.00;88.90;;;;;;5074027;28;20035;-75
2023/04/03 02:42:32;;;;;;;6.35;1.67;;;5.00;87.90;;;;;;5073980;28;20029;-75
2023/04/03 02:45:00;;;;;;;2.10;1.52;;;4.90;88.10;;;;;;5072988;28;20041;-75
2023/04/03 02:47:27;;;;;;;4.82;1.60;;;4.90;88.30;;;;;;5056423;28;20037;-75
2023/04/03 02:49:52;;;;;;;2.10;1.50;;;4.80;88.70;;;;;;5073900;28;20048;-75
2023/04/03 02:52:18;;;;;;;1.58;1.20;;;4.80;88.90;;;;;;5073826;28;20017;-75
2023/04/03 02:54:44;;;;;;;3.33;1.70;;;4.80;89.10;;;;;;5072837;28;20017;-74
2023/04/03 02:57:10;;;;;;;3.15;1.48;;;4.80;89.00;;;;;;5039700;28;20100;-74
2023/04/03 02:59:36;;;;;;;3.65;1.30;;;4.80;89.30;;;;;;5072766;28;20059;-75
2023/04/03 03:02:02;;;;;;;3.42;1.40;;;4.80;89.30;;;;;;5072660;28;20032;-74
2023/04/03 03:04:28;;;;;;;3.80;1.50;;;4.80;89.30;;;;;;5055954;28;20036;-75
2023/04/03 03:06:53;;;;;;;6.97;1.90;;;4.80;89.30;;;;;;5072588;28;20029;-74
2023/04/03 03:09:19;;;;;;;3.60;1.70;;;4.70;89.60;;;;;;5039436;28;20052;-75
2023/04/03 03:11:45;;;;;;;2.38;1.42;;;4.70;89.60;;;;;;5073485;28;20028;-75
2023/04/03 03:14:10;;;;;;;2.13;1.55;;;4.70;89.90;;;;;;5073457;28;20028;-75
2023/04/03 03:16:36;;;;;;;3.15;1.38;;;4.60;89.90;;;;;;5072551;28;20029;-75
2023/04/03 03:19:02;;;;;;;2.65;1.30;;;4.70;89.70;;;;;;5072311;28;20033;-75
2023/04/03 03:21:27;;;;;;;2.35;1.50;;;4.60;89.70;;;;;;5073360;28;20029;-75
2023/04/03 03:23:53;;;;;;;3.20;1.33;;;4.60;89.80;;;;;;5055760;28;20033;-75
2023/04/03 03:26:19;;;;;;;3.67;1.45;;;4.60;89.90;;;;;;5072342;28;20036;-74
2023/04/03 03:28:45;;;;;;;2.80;1.40;;;4.60;89.90;;;;;;5073286;28;20489;-75
2023/04/03 03:31:12;;;;;;;3.35;1.42;;;4.60;89.80;;;;;;5072046;28;20043;-74
2023/04/03 03:33:37;;;;;;;3.17;1.73;;;4.60;90.00;;;;;;5072169;28;20025;-74
2023/04/03 03:36:03;;;;;;;3.10;1.60;;;4.70;90.00;;;;;;5055500;28;20059;-75
2023/04/03 03:38:29;;;;;;;4.72;1.52;;;4.70;90.00;;;;;;5072297;28;20111;-75
2023/04/03 03:40:54;;;;;;;2.70;1.48;;;4.70;90.00;;;;;;5055613;28;20112;-74
2023/04/03 03:43:20;;;;;;;4.35;1.52;;;4.70;89.90;;;;;;5073089;28;20029;-75
2023/04/03 03:45:51;;;;;;;1.30;1.02;;;4.70;89.70;;;;;;5073128;28;20051;-75
2023/04/03 03:48:16;;;;;;;2.42;1.70;;;4.70;89.50;;;;;;5071822;28;20040;-75
2023/04/03 03:50:42;;;;;;;2.40;1.40;;;4.80;89.20;;;;;;5072222;28;20032;-75
2023/04/03 03:53:07;;;;;;;2.50;1.42;;;4.70;90.00;;;;;;5071992;28;20021;-74
2023/04/03 03:55:33;;;;;;;4.20;1.45;;;4.70;89.40;;;;;;5071951;28;20030;-74
2023/04/03 03:58:00;;;;;;;3.20;1.20;;;4.70;89.50;;;;;;5055299;28;20037;-74
2023/04/03 04:00:27;;;;;;;2.63;1.20;;;4.70;89.50;;;;;;5039449;28;20029;-74
2023/04/03 04:02:52;;;;;;;3.30;1.50;;;4.70;89.50;;;;;;5071982;28;20033;-74
2023/04/03 04:05:18;;;;;;;2.95;1.40;;;4.70;89.30;;;;;;5038907;28;20101;-74
2023/04/03 04:07:43;;;;;;;4.47;1.80;;;4.70;89.20;;;;;;5038693;28;20099;-74
2023/04/03 04:10:10;;;;;;;4.00;2.20;;;4.60;89.20;;;;;;5072557;28;20109;-74
2023/04/03 04:12:35;;;;;;;1.85;1.20;;;4.60;89.30;;;;;;5059257;28;20033;-74
2023/04/03 04:15:02;;;;;;;4.57;1.75;;;4.60;89.30;;;;;;5075839;28;20120;-74
2023/04/03 04:17:27;;;;;;;3.30;1.45;;;4.60;89.00;;;;;;5075819;28;20051;-76
2023/04/03 04:19:53;;;;;;;3.95;1.55;;;4.50;89.20;;;;;;5059048;28;20064;-77
2023/04/03 04:22:19;;;;;;;3.55;1.40;;;4.50;89.20;;;;;;5075820;28;20033;-74
2023/04/03 04:24:44;;;;;;;4.03;1.52;;;4.50;90.00;;;;;;5059166;28;20029;-74
2023/04/03 04:27:10;;;;;;;4.13;1.70;;;4.50;89.30;;;;;;5058757;28;20187;-74
2023/04/03 04:29:37;;;;;;;3.78;1.27;;;4.40;89.40;;;;;;5058873;28;20112;-74
2023/04/03 04:32:03;;;;;;;4.07;1.80;;;4.40;89.40;;;;;;5058989;28;20025;-75
2023/04/03 04:34:29;;;;;;;2.42;1.40;;;4.40;89.60;;;;;;5076488;28;20074;-74
2023/04/03 04:36:55;;;;;;;3.80;1.35;;;4.40;89.40;;;;;;5075463;28;20029;-75
2023/04/03 04:39:20;;;;;;;4.13;1.50;;;4.40;89.40;;;;;;5075383;28;20040;-75
2023/04/03 04:41:46;;;;;;;3.78;1.45;;;4.40;89.60;;;;;;5058775;28;20038;-75
2023/04/03 04:44:12;;;;;;;2.75;1.40;;;4.40;89.40;;;;;;5058618;28;20149;-75
2023/04/03 04:46:37;;;;;;;2.17;1.10;;;4.40;89.50;;;;;;5041888;28;20020;-75
2023/04/03 04:49:03;;;;;;;3.85;1.60;;;4.30;89.50;;;;;;5074972;28;20059;-74
2023/04/03 04:51:29;;;;;;;2.78;1.50;;;4.30;89.30;;;;;;5058546;28;20017;-75
2023/04/03 04:53:54;;;;;;;4.53;2.20;;;4.30;89.10;;;;;;5076061;28;20043;-75
2023/04/03 04:56:20;;;;;;;4.40;1.40;;;4.30;89.10;;;;;;5076033;28;20025;-74
2023/04/03 04:58:46;;;;;;;3.38;1.38;;;4.20;89.10;;;;;;5075007;28;20021;-76
2023/04/03 05:01:12;;;;;;;2.70;1.20;;;4.20;89.50;;;;;;5075056;28;20103;-74
2023/04/03 05:03:37;;;;;;;2.85;1.40;;;4.20;89.80;;;;;;5074978;28;20055;-74
2023/04/03 05:06:04;;;;;;;4.78;1.10;;;4.20;89.70;;;;;;5058104;28;20057;-74
2023/04/03 05:08:30;;;;;;;2.70;1.38;;;4.20;89.60;;;;;;5075824;28;20043;-74
2023/04/03 05:10:56;;;;;;;1.67;1.00;;;4.20;89.30;;;;;;5074759;28;20138;-74
2023/04/03 05:13:22;;;;;;;3.33;1.52;;;4.20;89.60;;;;;;5074931;28;20032;-75
2023/04/03 05:15:47;;;;;;;1.98;1.30;;;4.20;89.60;;;;;;5075628;28;20024;-76
2023/04/03 05:18:13;;;;;;;2.88;1.35;;;4.30;89.50;;;;;;5074667;28;20032;-75
2023/04/03 05:20:40;;;;;;;5.20;2.10;;;4.40;89.30;;;;;;5075567;28;20057;-75
2023/04/03 05:23:05;;;;;;;3.83;1.48;;;4.40;89.20;;;;;;5056836;28;20040;-76
2023/04/03 05:25:31;;;;;;;2.85;1.55;;;4.40;89.90;;;;;;5057857;28;20033;-75
2023/04/03 05:27:57;;;;;;;5.28;1.60;;;4.40;89.10;;;;;;5075294;28;20025;-75
2023/04/03 05:30:23;;;;;;;2.58;1.42;;;4.40;88.70;;;;;;5074355;28;20036;-76
2023/04/03 05:32:49;;;;;;;2.70;1.23;;;4.30;88.60;;;;;;5075370;28;20032;-76
2023/04/03 05:35:15;;;;;;;4.18;1.30;;;4.20;88.70;;;;;;5057988;28;20021;-76
2023/04/03 05:37:40;;;;;;;2.20;1.48;;;4.20;89.00;;;;;;5075248;28;20039;-75
2023/04/03 05:40:07;;;;;;;3.08;1.40;;;4.10;89.10;;;;;;5057576;28;20029;-76
2023/04/03 05:42:33;;;;;;;5.57;1.70;;;4.00;89.40;;;;;;5057461;28;20062;-76
2023/04/03 05:44:58;;;;;;;2.75;1.55;;;4.00;89.80;;;;;;5074083;28;20024;-76
2023/04/03 05:47:24;;;;;;;5.75;1.75;;;4.10;89.80;;;;;;5073871;28;20075;-76
2023/04/03 05:49:51;;;;;;;6.28;1.80;;;4.10;89.70;;;;;;5074133;28;20049;-76
2023/04/03 05:52:37;;;;;;;5.10;1.70;;;4.10;89.20;;;;;;5074072;28;20071;-76
2023/04/03 05:55:03;;;;;;;3.78;1.55;;;4.10;89.30;;;;;;5074961;28;20033;-75
2023/04/03 05:57:29;;;;;;;2.78;1.13;;;4.10;89.50;;;;;;5040788;28;20126;-76
2023/04/03 05:59:55;;;;;;;3.17;1.20;;;4.10;89.50;;;;;;5074844;28;20053;-76
2023/04/03 06:02:22;;;;;;;5.35;1.35;;;4.10;89.50;;;;;;5057139;28;20070;-76
2023/04/03 06:04:48;;;;;;;5.93;1.40;;;4.10;90.00;;;;;;5073786;28;20025;-76
2023/04/03 06:07:20;;;;;;;2.40;1.35;;;4.10;89.90;;;;;;5074795;28;20025;-75
2023/04/03 06:09:47;;;;;;;;;;;4.20;90.00;;;;;;5075257;28;20021;-76
2023/04/03 06:12:13;;;;;;;2.65;1.05;;;4.20;89.80;;;;;;5073560;28;19909;-76
2023/04/03 06:14:38;;;;;;;2.20;1.55;;;4.20;89.80;;;;;;5073687;28;20021;-76
2023/04/03 06:17:04;;;;;;;4.07;1.13;;;4.20;89.50;;;;;;5073508;28;20056;-76
2023/04/03 06:19:30;;;;;;;3.65;1.58;;;4.20;89.50;;;;;;5074519;28;20035;-76
2023/04/03 06:21:56;;;;;;;4.95;1.67;;;4.20;89.90;;;;;;5056723;28;20057;-76
2023/04/03 06:24:23;;;;;;;4.40;1.33;;;4.20;89.90;;;;;;5073519;28;20035;-76
2023/04/03 06:26:51;;;;;;;2.70;1.20;;;4.20;90.00;;;;;;5056808;28;20021;-76
2023/04/03 06:29:17;;;;;;;2.67;1.52;;;4.20;90.30;;;;;;5074275;28;20017;-76
2023/04/03 06:31:43;;;;;;;3.33;1.30;;;4.20;90.30;;;;;;5056741;28;20037;-76
2023/04/03 06:34:11;;;;;;;7.03;1.15;;;4.20;90.20;;;;;;5073120;28;20030;-76
2023/04/03 06:36:37;;;;;;;3.25;1.52;;;4.30;90.30;;;;;;5073135;28;20021;-76
2023/04/03 06:39:03;;;;;;;3.33;1.35;;;4.30;90.20;;;;;;5073126;28;20402;-76
2023/04/03 06:41:29;;;;;;;5.05;1.55;;;4.30;90.30;;;;;;5074073;28;20017;-76
2023/04/03 06:43:57;;;;;;;6.55;1.50;;;4.40;90.20;;;;;;5056378;28;20047;-76
2023/04/03 06:46:24;;;;;;;4.50;1.40;;;4.40;90.10;;;;;;5073894;28;20021;-76
2023/04/03 06:48:50;;;;;;;3.25;1.10;;;4.50;90.10;;;;;;5072752;28;20079;-76
2023/04/03 06:51:20;;;;;;;4.50;1.70;;;4.40;90.00;;;;;;5072865;28;20445;-76
2023/04/03 06:53:47;;;;;;;2.25;1.13;;;4.50;90.20;;;;;;5073863;28;20036;-75
2023/04/03 06:56:13;;;;;;;5.32;1.23;;;4.50;90.30;;;;;;5072869;28;20035;-76
2023/04/03 06:58:39;;;;;;;5.47;1.60;;;4.50;90.10;;;;;;5056050;28;20021;-76
2023/04/03 07:01:05;;;;;;;4.18;1.30;;;4.60;90.20;;;;;;5056264;28;20029;-76
2023/04/03 07:03:31;;;;;;;4.70;2.03;;;4.60;89.90;;;;;;5072776;28;20017;-76
2023/04/03 07:05:56;;;;;;;4.25;1.40;;;4.60;89.60;;;;;;5055986;28;20529;-76
2023/04/03 07:08:23;;;;;;;4.32;1.35;;;4.70;89.20;;;;;;5055848;28;20033;-76
2023/04/03 07:10:49;;;;;;;3.85;1.42;;;4.70;89.10;;;;;;5072663;28;20021;-76
2023/04/03 07:13:15;;;;;;;7.35;1.23;;;4.70;89.10;;;;;;5073528;28;20038;-76
2023/04/03 07:15:41;;;;;;;3.75;1.30;;;4.70;89.20;;;;;;5072524;28;20029;-76
2023/04/03 07:18:07;;;;;;;6.07;1.58;;;4.80;89.40;;;;;;5072392;28;20055;-76
2023/04/03 07:20:32;;;;;;;6.05;1.75;;;4.80;89.30;;;;;;5039321;28;20028;-76
2023/04/03 07:22:58;;;;;;;5.50;1.70;;;4.80;89.70;;;;;;5055755;28;20037;-76
2023/04/03 07:25:23;;;;;;;1.75;1.15;;;4.90;89.40;;;;;;5055737;28;20033;-76
2023/04/03 07:27:49;;;;;;;1.67;1.17;;;5.00;89.00;;;;;;5072189;28;20071;-76
2023/04/03 07:30:15;;;;;;;2.50;1.50;;;5.00;89.30;;;;;;5055661;28;20073;-76
2023/04/03 07:32:41;;;;;;;2.78;1.48;;;5.10;89.30;;;;;;5055758;28;20048;-76
2023/04/03 07:35:06;;;;;;;3.65;1.33;;;5.10;88.60;;;;;;5055702;28;20025;-76
2023/04/03 07:37:32;;;;;;;1.73;1.25;;;5.30;88.70;;;;;;5072128;28;20025;-76
2023/04/03 07:39:58;;;;;;;4.60;1.60;;;5.30;88.60;;;;;;5072255;28;20033;-76
2023/04/03 07:42:27;;;;;;;5.82;1.13;;;5.30;87.90;;;;;;5072192;28;20092;-76
2023/04/03 07:44:53;;;;;;;2.17;1.30;;;5.40;87.90;;;;;;5072589;28;20104;-76
2023/04/03 07:47:20;;;;;;;3.75;1.23;;;5.50;88.50;;;;;;5071825;28;20052;-76
2023/04/03 07:49:45;;;;;;;6.57;1.55;;;5.60;88.10;;;;;;5055632;28;20025;-76
2023/04/03 07:52:11;;;;;;;3.08;1.52;;;5.60;87.80;;;;;;5055460;28;20051;-76
2023/04/03 07:54:37;;;;;;;3.97;1.50;;;5.70;87.00;;;;;;5072199;28;20081;-76
2023/04/03 07:57:03;;;;;;;2.08;0.95;;;5.80;85.80;;;;;;5071940;28;20028;-76
2023/04/03 07:59:28;;;;;;;2.05;0.95;;;5.80;86.30;;;;;;5071952;28;20021;-76
2023/04/03 08:01:54;;;;;;;2.38;1.20;;;5.90;86.80;;;;;;5071877;28;20044;-76
2023/04/03 08:04:20;;;;;;;4.47;1.20;;;6.00;85.60;;;;;;5071938;28;20021;-76
2023/04/03 08:06:46;;;;;;;3.33;1.15;;;6.10;85.00;;;;;;5071980;28;20032;-76
2023/04/03 08:09:11;;;;;;;3.88;1.17;;;6.20;84.40;;;;;;5038926;28;20028;-76
2023/04/03 08:11:39;;;;;;;2.13;1.25;;;6.30;84.10;;;;;;5055182;28;20040;-76
2023/04/03 08:14:05;;;;;;;2.17;1.05;;;6.30;83.20;;;;;;5071791;28;20032;-76
2023/04/03 08:16:30;;;;;;;3.88;1.50;;;6.40;83.90;;;;;;5072821;28;20021;-76
2023/04/03 08:18:56;;;;;;;4.35;1.67;;;6.50;82.60;;;;;;5071902;28;20084;-76
2023/04/03 08:21:22;;;;;;;5.50;1.20;;;6.60;81.60;;;;;;5055230;28;20105;-76
2023/04/03 08:23:50;;;;;;;5.00;1.13;;;6.70;80.70;;;;;;5071778;28;20028;-76
2023/04/03 08:26:20;;;;;;;3.80;1.20;;;6.80;80.70;;;;;;5071596;28;20028;-76
2023/04/03 08:28:45;;;;;;;2.83;1.13;;;6.80;80.30;;;;;;5072659;28;20021;-76
2023/04/03 08:31:14;;;;;;;3.72;1.20;;;6.90;80.10;;;;;;5071611;28;20033;-75
2023/04/03 08:33:40;;;;;;;2.10;1.17;;;7.00;80.50;;;;;;5072666;28;20028;-76
2023/04/03 08:36:15;;;;;;;1.95;0.98;;;7.10;79.60;;;;;;5072612;28;20029;-76
2023/04/03 08:38:41;;;;;;;2.45;1.02;;;7.20;78.10;;;;;;5056198;28;20017;-76
2023/04/03 08:41:15;;;;;;;3.63;1.00;;;7.40;77.20;;;;;;5054961;28;20051;-76
2023/04/03 08:44:11;;;;;;;2.00;0.98;;;7.40;76.20;;;;;;5071655;28;20116;-76
2023/04/03 08:46:42;;;;;;;2.58;0.93;;;7.50;75.00;;;;;;5072461;28;20040;-76
2023/04/03 08:49:22;;;;;;;2.72;1.30;;;7.50;75.50;;;;;;5071502;28;20036;-77
2023/04/03 08:51:50;;;;;;;1.48;0.73;;;7.60;73.20;;;;;;5071428;28;20031;-76
2023/04/03 08:54:30;;;;;;;4.20;0.88;;;7.70;72.60;;;;;;5072479;28;20025;-76
2023/04/03 08:56:57;;;;;;;1.23;0.70;;;7.80;72.10;;;;;;5071636;28;20055;-76
2023/04/03 08:59:28;;;;;;;1.67;0.93;;;7.90;68.20;;;;;;5075073;28;20027;-76
2023/04/03 09:01:55;;;;;;;2.90;0.65;;;8.10;68.10;;;;;;5075038;28;20088;-76
2023/04/03 09:04:21;;;;;;;2.08;0.80;;;8.10;66.10;;;;;;5074985;28;20024;-76
2023/04/03 09:06:54;;;;;;;3.15;0.68;;;8.10;67.90;;;;;;5074742;28;20032;-75
2023/04/03 09:09:35;;;;;;;1.85;0.60;;;8.30;65.30;;;;;;5074869;28;20041;-76
2023/04/03 09:12:19;;;;;;;0.88;0.45;;;8.20;65.30;;;;;;5074758;28;20123;-75
2023/04/03 09:15:02;;;;;;;1.88;0.57;;;8.40;65.70;;;;;;5075844;28;20021;-75
2023/04/03 09:17:53;;;;;;;1.15;0.43;;;8.50;61.90;;;;;;5075723;28;20028;-76
2023/04/03 09:20:29;;;;;;;2.80;0.50;;;8.60;60.50;;;;;;5074564;28;20028;-75
2023/04/03 09:22:55;;;;;;;1.33;0.70;;;8.60;62.40;;;;;;5075591;28;20021;-75
2023/04/03 09:25:47;;;;;;;1.05;0.40;;;8.60;62.00;;;;;;5075670;28;20057;-76
2023/04/03 09:28:13;;;;;;;1.67;0.60;;;8.70;56.20;;;;;;5071430;28;20040;-76
2023/04/03 09:30:39;;;;;;;1.38;0.70;;;8.70;54.70;;;;;;5075430;28;20075;-75
2023/04/03 09:33:05;;;;;;;0.63;0.20;;;8.80;58.70;;;;;;5074519;28;20039;-75
2023/04/03 09:35:36;;;;;;;0.17;0.15;;;8.90;56.90;;;;;;5057774;28;20021;-75
2023/04/03 09:38:11;;;;;;;0.70;0.22;;;9.10;49.60;;;;;;5074263;28;20092;-76
2023/04/03 09:40:40;;;;;;;1.10;0.52;;;9.00;48.90;;;;;;5074227;28;20025;-75
2023/04/03 09:43:24;;;;;;;1.23;0.50;;;9.10;49.30;;;;;;5075192;28;20047;-75
2023/04/03 09:45:51;;;;;;;1.55;0.50;;;9.10;49.10;;;;;;5075113;28;20391;-76
2023/04/03 09:48:19;;;;;;;1.35;0.43;;;9.20;51.60;;;;;;5075041;28;20048;-75
2023/04/03 09:50:55;;;;;;;1.17;0.40;;;9.20;50.30;;;;;;5074005;28;20017;-75
2023/04/03 09:53:42;;;;;;;2.53;0.40;;;9.30;47.00;;;;;;5074015;28;20047;-76
2023/04/03 09:56:16;;;;;;;1.17;0.40;;;9.40;47.10;;;;;;5074956;28;20021;-76
2023/04/03 09:58:48;;;;;;;2.85;0.73;;;9.40;45.90;;;;;;5073959;28;20024;-76
2023/04/03 10:01:23;;;;;;;;;;;9.40;46.40;;;;;;5074318;28;20017;-76
2023/04/03 10:04:02;;;;;;;0.73;0.32;;;9.50;47.30;;;;;;5073871;28;19919;-76
2023/04/03 10:06:32;;;;;;;0.43;0.13;;;9.60;45.40;;;;;;5074683;28;20039;-75
2023/04/03 10:09:15;;;;;;;0.57;0.22;;;9.50;44.90;;;;;;5073201;28;20092;-76
2023/04/03 10:12:04;;;;;;;0.70;0.30;;;9.50;43.20;;;;;;5074718;28;20021;-77
2023/04/03 10:14:51;;;;;;;2.50;0.57;;;9.50;41.20;;;;;;5074724;28;20043;-77
2023/04/03 10:17:25;;;;;;;0.43;0.28;;;9.50;41.70;;;;;;5063125;28;20041;-76
2023/04/03 10:20:24;;;;;;;0.82;0.40;;;9.50;40.10;;;;;;5074422;28;20029;-76
2023/04/03 10:23:17;;;;;;;0.32;0.15;;;9.50;42.90;;;;;;5063755;28;20055;-76
2023/04/03 10:26:07;;;;;;;0.85;0.40;;;9.50;43.00;;;;;;5074375;28;20035;-76
2023/04/03 10:28:58;;;;;;;1.75;0.40;;;9.60;42.00;;;;;;5074321;28;20076;-76
2023/04/03 10:31:33;;;;;;;1.00;0.50;;;9.70;41.90;;;;;;5074408;28;20037;-76
2023/04/03 10:34:10;;;;;;;1.60;0.50;;;9.70;41.80;;;;;;5074198;28;20029;-76
2023/04/03 10:36:39;;;;;;;0.52;0.38;;;9.80;44.60;;;;;;5074220;28;20088;-76
2023/04/03 10:39:37;;;;;;;1.42;0.43;;;9.80;41.00;;;;;;5074113;28;20043;-76
2023/04/03 10:42:14;;;;;;;0.82;0.40;;;9.80;43.80;;;;;;5070048;28;20091;-76
2023/04/03 10:45:06;;;;;;;2.28;0.55;;;9.90;43.00;;;;;;5074086;28;20047;-76
2023/04/03 10:47:43;;;;;;;1.65;0.55;;;9.90;40.00;;;;;;5064458;28;20071;-76
2023/04/03 10:53:33;;;;;;;1.10;0.30;;;10.00;42.60;;;;;;5073798;28;20056;-77
2023/04/03 10:56:30;;;;;;;0.63;0.30;;;10.00;42.50;;;;;;5072887;28;20421;-77
2023/04/03 10:59:08;;;;;;;0.65;0.40;;;10.10;43.40;;;;;;5073859;28;20025;-77
2023/04/03 11:01:38;;;;;;;1.00;0.20;;;10.20;45.00;;;;;;5072762;28;20039;-77
2023/04/03 11:04:05;;;;;;;0.93;0.40;;;10.30;43.40;;;;;;5073731;28;20025;-77
2023/04/03 11:06:43;;;;;;;1.05;0.32;;;10.40;41.40;;;;;;5073441;28;20051;-76
2023/04/03 11:09:31;;;;;;;0.95;0.50;;;10.40;42.70;;;;;;5073610;28;20048;-77
2023/04/03 11:12:26;;;;;;;1.75;0.40;;;10.40;44.20;;;;;;5072578;28;20032;-77
2023/04/03 11:14:55;;;;;;;2.55;0.65;;;10.40;42.90;;;;;;5030636;28;20044;-77
2023/04/03 11:17:23;;;;;;;2.28;0.70;;;10.50;43.40;;;;;;5073449;28;20021;-77
2023/04/03 11:19:55;;;;;;;1.75;0.70;;;10.60;41.50;;;;;;5071606;28;20044;-77
2023/04/03 11:22:28;;;;;;;1.50;0.50;;;10.60;45.50;;;;;;5073419;28;20031;-77
2023/04/03 11:25:02;;;;;;;1.23;0.50;;;10.70;42.90;;;;;;5073467;28;20056;-77
2023/04/03 11:27:37;;;;;;;1.42;0.43;;;10.70;43.80;;;;;;5072175;28;20116;-76
2023/04/03 11:30:07;;;;;;;1.52;0.40;;;10.80;43.60;;;;;;5073300;28;20080;-76
2023/04/03 11:32:53;;;;;;;1.73;0.43;;;10.80;42.50;;;;;;5073249;28;20045;-77
2023/04/03 11:35:20;;;;;;;1.75;0.80;;;10.80;41.60;;;;;;5073322;28;20025;-77
2023/04/03 11:37:50;;;;;;;1.75;0.60;;;10.90;41.40;;;;;;5039202;28;20026;-77
2023/04/03 11:40:17;;;;;;;2.47;0.93;;;10.90;38.70;;;;;;5072235;28;20047;-77
2023/04/03 11:42:48;;;;;;;2.20;0.60;;;10.80;38.50;;;;;;5073107;28;20021;-77
2023/04/03 11:45:26;;;;;;;1.65;0.50;;;10.80;41.80;;;;;;5073161;28;20029;-77
2023/04/03 11:47:53;;;;;;;1.95;0.70;;;10.80;42.30;;;;;;5072708;28;20051;-77
2023/04/03 11:50:34;;;;;;;3.85;0.90;;;10.80;43.10;;;;;;5072061;28;20051;-77
2023/04/03 11:53:02;;;;;;;1.15;0.45;;;11.00;45.20;;;;;;5072038;28;20025;-77
2023/04/03 11:55:44;;;;;;;4.38;0.70;;;11.10;43.10;;;;;;5072010;28;20036;-77
2023/04/03 11:58:15;;;;;;;2.40;0.60;;;11.10;44.90;;;;;;5072024;28;20025;-76
2023/04/03 12:00:47;;;;;;;1.35;0.80;;;11.20;46.20;;;;;;5071977;28;20092;-77
2023/04/03 12:03:28;;;;;;;3.10;0.90;;;11.40;46.90;;;;;;5071941;28;20029;-77
2023/04/03 12:06:18;;;;;;;1.90;0.75;;;11.40;45.90;;;;;;5071971;28;20279;-77
2023/04/03 12:08:47;;;;;;;1.35;0.52;;;11.40;44.70;;;;;;5073051;28;20036;-77
2023/04/03 12:11:23;;;;;;;1.63;0.73;;;11.40;40.40;;;;;;5071854;28;20028;-77
2023/04/03 12:13:49;;;;;;;1.75;0.77;;;11.30;40.30;;;;;;5072927;28;20025;-77
2023/04/03 12:16:26;;;;;;;1.92;0.80;;;11.20;40.80;;;;;;5071797;28;20032;-77
2023/04/03 12:18:52;;;;;;;2.03;0.85;;;11.20;41.70;;;;;;5072790;28;20021;-77
2023/04/03 12:21:23;;;;;;;1.73;0.70;;;11.20;45.70;;;;;;5071740;28;20024;-77
2023/04/03 12:24:21;;;;;;;2.20;0.90;;;11.40;42.80;;;;;;5055398;28;20112;-77
2023/04/03 12:27:25;;;;;;;1.85;0.50;;;11.40;41.40;;;;;;5058303;28;20071;-77
2023/04/03 12:29:57;;;;;;;1.80;0.60;;;11.50;42.40;;;;;;5071688;28;20029;-77
2023/04/03 12:32:26;;;;;;;1.85;0.73;;;11.40;42.40;;;;;;5075239;28;20048;-77
2023/04/03 12:35:26;;;;;;;0.93;0.80;;;11.40;42.80;;;;;;5076539;28;20017;-77
2023/04/03 12:38:46;;;;;;;2.55;0.75;;;11.40;42.10;;;;;;5075569;28;20123;-77
2023/04/03 12:41:33;;;;;;;2.22;0.90;;;11.40;42.10;;;;;;4979300;28;20050;-78
2023/04/03 12:44:13;;;;;;;1.35;0.75;;;11.50;42.60;;;;;;5068932;28;20033;-77
2023/04/03 12:46:44;;;;;;;1.65;0.90;;;11.70;40.50;;;;;;5075267;28;20021;-77
2023/04/03 12:49:28;;;;;;;3.33;0.82;;;11.60;41.20;;;;;;5076171;28;20049;-77
2023/04/03 12:51:54;;;;;;;2.65;0.77;;;11.60;42.80;;;;;;5075193;28;20055;-77
2023/04/03 12:54:29;;;;;;;2.90;0.85;;;11.60;41.30;;;;;;5075090;28;20025;-77
2023/04/03 12:57:27;;;;;;;3.20;0.98;;;11.60;44.20;;;;;;5076096;28;20027;-77
2023/04/03 12:59:53;;;;;;;2.47;0.90;;;11.70;42.90;;;;;;5032065;28;20040;-77
2023/04/03 13:02:35;;;;;;;3.50;1.25;;;11.60;40.60;;;;;;5074971;28;20423;-76
2023/04/03 13:05:15;;;;;;;5.97;1.10;;;11.70;44.50;;;;;;5075000;28;20033;-78
2023/04/03 13:07:43;;;;;;;2.05;0.77;;;11.80;43.60;;;;;;5074988;28;20029;-77
2023/04/03 13:10:08;;;;;;;1.85;0.85;;;11.80;44.00;;;;;;5058717;28;20013;-77
2023/04/03 13:12:52;;;;;;;2.22;0.82;;;11.80;44.00;;;;;;5074737;28;20025;-76